createdAt,value
2022-12-09T00:00:58.539Z,33.25
2022-12-09T00:03:43.860Z,32.80
2022-12-09T00:06:34.691Z,31.33
2022-12-09T00:09:13.793Z,30.52
2022-12-09T00:12:05.782Z,32.85
2022-12-09T00:14:44.360Z,36.88
2022-12-09T00:17:26.584Z,33.85
2022-12-09T00:20:06.857Z,32.13
2022-12-09T00:22:48.864Z,33.67
2022-12-09T00:25:42.902Z,32.58
2022-12-09T00:31:17.033Z,32.17
2022-12-09T00:33:57.020Z,33.28
2022-12-09T00:36:41.941Z,36.08
2022-12-09T00:39:27.878Z,34.13
2022-12-09T00:42:02.714Z,32.58
2022-12-09T00:44:50.485Z,34.60
2022-12-09T00:47:28.416Z,33.85
2022-12-09T00:50:17.977Z,36.03
2022-12-09T00:52:57.417Z,33.00
2022-12-09T00:55:36.622Z,33.30
2022-12-09T00:58:17.640Z,34.15
2022-12-09T01:00:59.905Z,32.67
2022-12-09T01:03:38.540Z,34.63
2022-12-09T01:06:34.273Z,36.22
2022-12-09T01:09:18.316Z,33.25
2022-12-09T01:12:03.075Z,33.70
2022-12-09T01:14:49.129Z,30.27
2022-12-09T01:17:29.585Z,32.22
2022-12-09T01:20:11.322Z,39.63
2022-12-09T01:22:52.609Z,37.65
2022-12-09T01:25:42.543Z,37.58
2022-12-09T01:28:34.761Z,34.15
2022-12-09T01:31:28.151Z,35.10
2022-12-09T01:34:19.363Z,36.90
2022-12-09T01:37:13.201Z,35.53
2022-12-09T01:39:59.455Z,35.45
2022-12-09T01:42:58.094Z,33.83
2022-12-09T01:45:58.169Z,37.58
2022-12-09T01:48:47.816Z,35.70
2022-12-09T01:51:26.188Z,36.72
2022-12-09T01:54:09.925Z,32.33
2022-12-09T01:59:45.519Z,31.75
2022-12-09T02:02:28.215Z,34.80
2022-12-09T02:05:12.060Z,33.65
2022-12-09T02:07:53.168Z,36.60
2022-12-09T02:10:41.994Z,37.47
2022-12-09T02:13:59.242Z,33.30
2022-12-09T02:17:05.914Z,35.58
2022-12-09T02:20:01.878Z,34.03
2022-12-09T02:22:53.325Z,37.67
2022-12-09T02:25:41.764Z,39.83
2022-12-09T02:28:45.244Z,35.83
2022-12-09T02:31:50.276Z,35.35
2022-12-09T02:34:40.069Z,36.97
2022-12-09T02:37:42.719Z,41.17
2022-12-09T02:40:34.692Z,39.75
2022-12-09T02:43:22.884Z,41.72
2022-12-09T02:46:17.494Z,43.05
2022-12-09T02:49:04.869Z,41.15
2022-12-09T02:52:03.676Z,41.92
2022-12-09T02:54:47.662Z,40.20
2022-12-09T02:57:31.902Z,38.10
2022-12-09T03:00:15.742Z,38.13
2022-12-09T03:05:52.659Z,36.28
2022-12-09T03:08:56.770Z,40.28
2022-12-09T03:11:40.649Z,39.28
2022-12-09T03:14:44.051Z,38.80
2022-12-09T03:17:29.013Z,38.72
2022-12-09T03:20:21.456Z,42.72
2022-12-09T03:23:06.501Z,40.05
2022-12-09T03:25:53.171Z,42.90
2022-12-09T03:28:36.157Z,45.83
2022-12-09T03:31:22.319Z,44.17
2022-12-09T03:34:09.732Z,50.20
2022-12-09T03:36:54.485Z,45.30
2022-12-09T03:39:44.486Z,46.42
2022-12-09T03:42:34.194Z,45.97
2022-12-09T03:45:18.996Z,49.35
2022-12-09T03:48:02.350Z,48.72
2022-12-09T03:50:40.738Z,43.08
2022-12-09T03:53:29.176Z,45.42
2022-12-09T03:56:27.175Z,44.83
2022-12-09T03:59:08.847Z,56.63
2022-12-09T04:01:46.490Z,53.20
2022-12-09T04:04:31.588Z,51.85
2022-12-09T04:07:17.585Z,46.95
2022-12-09T04:10:08.254Z,46.95
2022-12-09T04:12:55.889Z,46.20
2022-12-09T04:15:37.513Z,47.75
2022-12-09T04:18:21.688Z,46.58
2022-12-09T04:21:00.503Z,42.83
2022-12-09T04:23:50.370Z,43.90
2022-12-09T04:26:36.237Z,45.00
2022-12-09T04:29:25.229Z,48.10
2022-12-09T04:32:10.585Z,50.83
2022-12-09T04:34:52.473Z,51.80
2022-12-09T04:37:34.887Z,51.67
2022-12-09T04:40:30.261Z,49.40
2022-12-09T04:43:22.393Z,49.88
2022-12-09T04:46:20.536Z,48.50
2022-12-09T04:49:14.759Z,50.42
2022-12-09T04:52:03.121Z,51.75
2022-12-09T04:54:50.925Z,50.67
2022-12-09T04:57:33.208Z,51.17
2022-12-09T05:00:14.355Z,49.72
2022-12-09T05:02:58.383Z,52.85
2022-12-09T05:05:43.917Z,50.95
2022-12-09T05:08:31.810Z,54.13
2022-12-09T05:11:24.988Z,55.03
2022-12-09T05:14:03.793Z,65.50
2022-12-09T05:16:44.823Z,68.43
2022-12-09T05:19:25.974Z,67.07
2022-12-09T05:22:08.564Z,61.30
2022-12-09T05:24:50.312Z,54.65
2022-12-09T05:27:31.867Z,56.10
2022-12-09T05:30:16.362Z,56.67
2022-12-09T05:33:06.061Z,53.88
2022-12-09T05:35:55.736Z,55.90
2022-12-09T05:38:37.615Z,55.00
2022-12-09T05:41:17.821Z,56.55
2022-12-09T05:44:05.143Z,53.80
2022-12-09T05:46:54.257Z,52.22
2022-12-09T05:49:39.300Z,56.65
2022-12-09T05:52:23.515Z,55.80
2022-12-09T05:55:09.519Z,57.03
2022-12-09T05:58:02.773Z,61.42
2022-12-09T06:00:50.876Z,59.58
2022-12-09T06:03:37.726Z,57.25
2022-12-09T06:06:28.206Z,61.88
2022-12-09T06:09:12.365Z,56.45
2022-12-09T06:12:01.849Z,58.03
2022-12-09T06:17:19.522Z,57.30
2022-12-09T06:20:01.133Z,56.70
2022-12-09T06:22:50.244Z,58.90
2022-12-09T06:25:33.915Z,54.80
2022-12-09T06:28:11.947Z,57.05
2022-12-09T06:30:53.966Z,61.03
2022-12-09T06:33:58.300Z,59.95
2022-12-09T06:36:55.438Z,59.90
2022-12-09T06:39:45.517Z,58.78
2022-12-09T06:42:28.914Z,59.72
2022-12-09T06:45:16.034Z,61.92
2022-12-09T06:47:58.064Z,61.53
2022-12-09T06:50:40.397Z,61.10
2022-12-09T06:53:25.327Z,61.13
2022-12-09T06:56:11.815Z,65.05
2022-12-09T06:59:05.991Z,63.53
2022-12-09T07:01:54.383Z,62.60
2022-12-09T07:04:36.584Z,62.08
2022-12-09T07:07:21.089Z,59.25
2022-12-09T07:10:05.007Z,61.75
2022-12-09T07:15:33.983Z,62.10
2022-12-09T07:18:25.185Z,60.13
2022-12-09T07:21:16.290Z,61.30
2022-12-09T07:23:57.777Z,58.30
2022-12-09T07:26:42.063Z,60.75
2022-12-09T07:29:27.682Z,61.60
2022-12-09T07:32:11.765Z,62.60
2022-12-09T07:34:55.740Z,61.22
2022-12-09T07:37:51.123Z,59.33
2022-12-09T07:40:33.541Z,63.15
2022-12-09T07:43:18.740Z,60.80
2022-12-09T07:46:05.991Z,60.58
2022-12-09T07:48:51.202Z,58.85
2022-12-09T07:51:37.035Z,58.47
2022-12-09T07:54:31.961Z,59.03
2022-12-09T07:57:18.411Z,56.60
2022-12-09T08:00:00.643Z,60.35
2022-12-09T08:02:47.158Z,61.28
2022-12-09T08:05:32.809Z,62.45
2022-12-09T08:08:21.414Z,61.15
2022-12-09T08:11:28.620Z,60.95
2022-12-09T08:14:12.505Z,63.33
2022-12-09T08:16:56.649Z,64.38
2022-12-09T08:19:55.765Z,61.80
2022-12-09T08:22:37.727Z,61.35
2022-12-09T08:25:27.113Z,61.20
2022-12-09T08:28:18.836Z,61.03
2022-12-09T08:31:03.087Z,61.30
2022-12-09T08:33:52.404Z,57.65
2022-12-09T08:36:36.980Z,57.90
2022-12-09T08:39:22.740Z,55.80
2022-12-09T08:42:04.948Z,54.50
2022-12-09T08:44:55.836Z,55.63
2022-12-09T08:47:39.523Z,52.97
2022-12-09T08:50:29.743Z,50.75
2022-12-09T08:53:11.967Z,51.65
2022-12-09T08:56:12.905Z,51.65
2022-12-09T08:58:58.016Z,52.80
2022-12-09T09:01:44.808Z,51.75
2022-12-09T09:04:32.819Z,49.85
2022-12-09T09:07:00.917Z,48.15
2022-12-09T09:09:53.190Z,49.67
2022-12-09T09:12:43.511Z,48.17
2022-12-09T09:15:25.781Z,47.38
2022-12-09T09:18:14.350Z,48.13
2022-12-09T09:21:02.581Z,50.00
2022-12-09T09:23:53.332Z,49.65
2022-12-09T09:26:43.377Z,53.38
2022-12-09T09:29:31.817Z,54.15
2022-12-09T09:32:13.400Z,55.88
2022-12-09T09:35:10.268Z,52.15
2022-12-09T09:38:00.775Z,49.97
2022-12-09T09:41:04.366Z,54.53
2022-12-09T09:43:59.996Z,52.38
2022-12-09T09:46:47.953Z,56.00
2022-12-09T09:49:40.819Z,51.47
2022-12-09T09:52:38.246Z,53.50
2022-12-09T09:55:57.498Z,100.55
2022-12-09T09:58:42.759Z,53.53
2022-12-09T10:01:28.693Z,54.35
2022-12-09T10:04:19.316Z,51.70
2022-12-09T10:07:33.312Z,51.42
2022-12-09T10:10:38.492Z,49.55
2022-12-09T10:14:03.045Z,50.88
2022-12-09T10:36:12.382Z,43.75
2022-12-09T10:38:48.784Z,42.25
2022-12-09T10:42:04.045Z,42.53
2022-12-09T10:44:45.149Z,42.65
2022-12-09T10:47:54.622Z,41.88
2022-12-09T10:50:50.152Z,42.33
2022-12-09T10:53:33.256Z,41.90
2022-12-09T10:56:42.505Z,39.80
2022-12-09T10:59:36.771Z,46.17
2022-12-09T11:02:28.796Z,43.55
2022-12-09T11:08:45.440Z,38.78
2022-12-09T11:11:19.890Z,37.78
2022-12-09T11:14:04.939Z,37.28
2022-12-09T11:17:14.459Z,33.50
2022-12-09T11:20:11.578Z,35.88
2022-12-09T11:23:25.683Z,32.35
2022-12-09T11:26:24.540Z,35.70
2022-12-09T11:29:39.675Z,32.58
2022-12-09T11:32:18.793Z,30.80
2022-12-09T11:35:11.389Z,28.63
2022-12-09T11:38:01.995Z,30.60
2022-12-09T11:41:03.511Z,27.83
2022-12-09T11:43:57.556Z,26.80
2022-12-09T11:46:44.227Z,27.88
2022-12-09T11:49:33.219Z,28.02
2022-12-09T11:52:31.881Z,29.55
2022-12-09T11:55:09.912Z,28.48
2022-12-09T11:58:14.869Z,32.33
2022-12-09T12:01:03.615Z,33.78
2022-12-09T12:03:50.440Z,31.50
2022-12-09T12:07:00.536Z,35.75
2022-12-09T12:09:52.401Z,31.92
2022-12-09T12:12:49.482Z,37.00
2022-12-09T12:15:39.287Z,36.22
2022-12-09T12:18:29.727Z,36.72
2022-12-09T12:21:31.879Z,35.38
2022-12-09T12:24:25.619Z,36.10
2022-12-09T12:27:49.475Z,37.75
2022-12-09T12:30:50.317Z,34.53
2022-12-09T12:34:23.518Z,36.95
2022-12-09T12:37:27.703Z,35.33
2022-12-09T12:40:46.296Z,38.75
2022-12-09T12:44:46.808Z,40.63
2022-12-09T12:48:27.076Z,38.15
2022-12-09T12:51:25.171Z,38.10
2022-12-09T12:54:18.793Z,37.92
2022-12-09T12:57:14.395Z,37.20
2022-12-09T13:00:23.912Z,39.60
2022-12-09T13:03:22.056Z,40.28
2022-12-09T13:06:10.984Z,35.03
2022-12-09T13:09:02.683Z,38.47
2022-12-09T13:12:17.815Z,36.67
2022-12-09T13:18:14.914Z,37.35
2022-12-09T13:21:06.417Z,37.30
2022-12-09T13:24:21.720Z,38.28
2022-12-09T13:27:21.658Z,42.20
2022-12-09T13:30:06.546Z,39.38
2022-12-09T13:33:02.779Z,40.47
2022-12-09T13:36:17.256Z,42.97
2022-12-09T13:39:03.011Z,43.83
2022-12-09T13:42:14.238Z,42.42
2022-12-09T13:45:25.645Z,32.22
2022-12-09T13:48:14.817Z,40.08
2022-12-09T13:51:03.404Z,45.00
2022-12-09T13:53:51.826Z,45.78
2022-12-09T13:56:31.227Z,44.88
2022-12-09T13:59:40.840Z,45.53
2022-12-09T14:02:35.992Z,46.35
2022-12-09T14:05:40.467Z,43.90
2022-12-09T14:11:38.056Z,41.10
2022-12-09T14:14:27.955Z,43.88
2022-12-09T14:17:09.493Z,47.50
2022-12-09T14:20:31.190Z,44.55
2022-12-09T14:23:29.746Z,41.75
2022-12-09T14:26:13.749Z,41.75
2022-12-09T14:29:07.377Z,41.47
2022-12-09T14:32:31.063Z,42.78
2022-12-09T14:35:18.888Z,39.53
2022-12-09T14:39:08.025Z,40.35
2022-12-09T14:44:55.127Z,37.47
2022-12-09T14:48:01.927Z,37.70
2022-12-09T14:50:52.785Z,38.17
2022-12-09T14:53:37.421Z,36.47
2022-12-09T14:56:13.235Z,35.35
2022-12-09T14:58:59.736Z,39.47
2022-12-09T15:02:17.376Z,37.30
2022-12-09T15:05:02.392Z,36.40
2022-12-09T15:08:00.207Z,36.53
2022-12-09T15:10:50.529Z,37.70
2022-12-09T15:13:45.345Z,37.65
2022-12-09T15:16:28.452Z,36.33
2022-12-09T15:22:09.061Z,40.03
2022-12-09T15:27:50.878Z,38.92
2022-12-09T15:30:42.598Z,43.08
2022-12-09T15:33:35.204Z,42.85
2022-12-09T15:36:25.438Z,42.53
2022-12-09T15:39:19.959Z,42.58
2022-12-09T15:42:10.943Z,39.65
2022-12-09T15:45:10.442Z,40.08
2022-12-09T15:47:46.265Z,39.63
2022-12-09T15:50:45.549Z,41.17
2022-12-09T15:53:53.793Z,37.00
2022-12-09T15:56:54.966Z,40.70
2022-12-09T16:00:07.404Z,40.78
2022-12-09T16:02:59.359Z,37.28
2022-12-09T16:05:43.970Z,41.58
2022-12-09T16:08:31.608Z,38.40
2022-12-09T16:11:44.247Z,36.97
2022-12-09T16:14:49.426Z,35.88
2022-12-09T16:18:07.854Z,35.60
2022-12-09T16:21:03.410Z,36.03
2022-12-09T16:23:39.415Z,34.25
2022-12-09T16:26:34.372Z,36.67
2022-12-09T16:29:26.611Z,35.83
2022-12-09T16:32:19.253Z,37.08
2022-12-09T16:35:53.572Z,35.55
2022-12-09T16:38:44.382Z,33.95
2022-12-09T16:41:25.911Z,34.45
2022-12-09T16:44:37.540Z,37.72
2022-12-09T16:47:27.617Z,33.00
2022-12-09T16:53:19.712Z,33.05
2022-12-09T16:56:26.928Z,32.90
2022-12-09T16:59:06.409Z,35.75
2022-12-09T17:01:47.945Z,33.70
2022-12-09T17:04:38.751Z,34.58
2022-12-09T17:07:23.537Z,36.13
2022-12-09T17:10:16.575Z,34.97
2022-12-09T17:12:58.761Z,30.55
2022-12-09T17:15:36.430Z,31.83
2022-12-09T17:18:30.205Z,32.75
2022-12-09T17:21:36.890Z,31.23
2022-12-09T17:24:31.442Z,32.00
2022-12-09T17:27:13.554Z,30.73
2022-12-09T17:29:54.836Z,30.67
2022-12-09T17:32:33.417Z,29.88
2022-12-09T17:35:20.445Z,29.77
2022-12-09T17:38:29.455Z,27.83
2022-12-09T17:41:21.046Z,28.05
2022-12-09T17:44:10.417Z,25.58
2022-12-09T17:46:56.556Z,26.65
2022-12-09T17:49:48.232Z,24.80
2022-12-09T17:52:42.219Z,24.88
2022-12-09T17:55:36.496Z,26.33
2022-12-09T17:58:27.512Z,28.13
2022-12-09T18:01:16.504Z,25.75
2022-12-09T18:04:15.844Z,25.70
2022-12-09T18:07:05.851Z,25.55
2022-12-09T18:09:54.381Z,24.30
2022-12-09T18:12:52.143Z,26.67
2022-12-09T18:15:32.822Z,26.20
2022-12-09T18:18:25.690Z,26.10
2022-12-09T18:21:15.326Z,25.90
2022-12-09T18:23:59.574Z,23.65
2022-12-09T18:26:47.769Z,21.80
2022-12-09T18:29:27.015Z,21.92
2022-12-09T18:32:04.395Z,23.80
2022-12-09T18:34:48.082Z,23.33
2022-12-09T18:37:32.671Z,23.70
2022-12-09T18:40:21.426Z,20.42
2022-12-09T18:42:52.559Z,21.58
2022-12-09T18:45:46.319Z,24.73
2022-12-09T18:48:28.163Z,23.70
2022-12-09T18:51:04.315Z,22.00
2022-12-09T18:53:45.570Z,22.70
2022-12-09T18:56:26.423Z,21.77
2022-12-09T18:59:12.438Z,21.00
2022-12-09T19:02:05.794Z,18.33
2022-12-09T19:04:55.046Z,20.05
2022-12-09T19:10:33.815Z,19.20
2022-12-09T19:13:28.794Z,22.40
2022-12-09T19:16:01.014Z,20.00
2022-12-09T19:18:56.399Z,22.23
2022-12-09T19:21:47.303Z,23.77
2022-12-09T19:24:38.442Z,22.58
2022-12-09T19:27:40.032Z,20.70
2022-12-09T19:30:23.400Z,22.20
2022-12-09T19:33:12.957Z,22.17
2022-12-09T19:35:49.010Z,22.60
2022-12-09T19:38:39.945Z,21.48
2022-12-09T19:41:23.350Z,21.73
2022-12-09T19:44:08.766Z,21.17
2022-12-09T19:47:00.597Z,33.97
2022-12-09T19:49:33.529Z,30.25
2022-12-09T19:52:19.454Z,21.23
2022-12-09T19:55:00.643Z,18.85
2022-12-09T19:57:43.853Z,19.08
2022-12-09T20:00:30.139Z,19.35
2022-12-09T20:03:20.505Z,20.85
2022-12-09T20:06:01.551Z,18.20
2022-12-09T20:08:48.037Z,18.80
2022-12-09T20:11:41.172Z,17.88
2022-12-09T20:14:25.188Z,17.77
2022-12-09T20:17:15.164Z,18.08
2022-12-09T20:20:09.766Z,21.23
2022-12-09T20:22:54.989Z,21.08
2022-12-09T20:25:28.715Z,20.42
2022-12-09T20:28:08.789Z,17.88
2022-12-09T20:30:59.359Z,19.80
2022-12-09T20:33:46.423Z,18.05
2022-12-09T20:36:28.889Z,19.15
2022-12-09T20:39:35.524Z,20.67
2022-12-09T20:42:19.251Z,16.63
2022-12-09T20:45:00.033Z,17.90
2022-12-09T20:47:39.392Z,18.65
2022-12-09T20:50:25.714Z,17.70
2022-12-09T20:53:21.657Z,18.45
2022-12-09T20:56:12.346Z,17.60
2022-12-09T20:59:12.903Z,16.30
2022-12-09T21:02:06.409Z,17.42
2022-12-09T21:05:02.034Z,17.70
2022-12-09T21:07:49.125Z,17.33
2022-12-09T21:10:33.449Z,19.73
2022-12-09T21:13:18.331Z,18.50
2022-12-09T21:15:56.288Z,19.83
2022-12-09T21:18:44.126Z,19.63
2022-12-09T21:21:31.093Z,18.98
2022-12-09T21:24:14.354Z,19.05
2022-12-09T21:26:56.248Z,21.93
2022-12-09T21:29:50.529Z,21.30
2022-12-09T21:32:40.418Z,18.35
2022-12-09T21:35:32.324Z,20.60
2022-12-09T21:38:28.306Z,18.00
2022-12-09T21:41:24.738Z,18.10
2022-12-09T21:44:00.113Z,25.38
2022-12-09T21:46:43.939Z,71.70
2022-12-09T21:49:16.716Z,38.03
2022-12-09T21:52:13.480Z,34.97
2022-12-09T21:54:58.399Z,47.95
2022-12-09T21:57:40.582Z,31.88
2022-12-09T22:00:30.277Z,25.20
2022-12-09T22:03:12.700Z,29.63
2022-12-09T22:06:06.427Z,31.38
2022-12-09T22:08:54.319Z,37.80
2022-12-09T22:11:41.100Z,41.33
2022-12-09T22:14:30.704Z,33.30
2022-12-09T22:17:18.543Z,29.25
2022-12-09T22:20:49.082Z,29.58
2022-12-09T22:23:21.147Z,26.27
2022-12-09T22:26:07.144Z,25.88
2022-12-09T22:28:47.239Z,30.00
2022-12-09T22:31:43.423Z,28.65
2022-12-09T22:34:14.405Z,60.80
2022-12-09T22:36:57.237Z,29.30
2022-12-09T22:39:49.377Z,28.98
2022-12-09T22:42:33.113Z,26.40
2022-12-09T22:45:36.043Z,24.48
2022-12-09T22:48:26.286Z,24.67
2022-12-09T22:51:21.023Z,23.10
2022-12-09T22:54:00.388Z,26.95
2022-12-09T22:56:51.668Z,24.33
2022-12-09T22:59:42.679Z,24.55
2022-12-09T23:02:23.047Z,22.65
2022-12-09T23:05:28.039Z,22.33
2022-12-09T23:08:15.444Z,25.90
2022-12-09T23:11:07.461Z,24.00
2022-12-09T23:13:56.052Z,28.30
2022-12-09T23:16:47.102Z,50.38
2022-12-09T23:19:45.315Z,43.20
2022-12-09T23:22:37.784Z,39.83
2022-12-09T23:25:18.935Z,40.22
2022-12-09T23:28:05.495Z,38.95
2022-12-09T23:30:49.432Z,40.05
2022-12-09T23:33:31.037Z,38.80
2022-12-09T23:36:37.428Z,37.17
2022-12-09T23:39:20.375Z,30.00
2022-12-09T23:42:08.809Z,28.30
2022-12-09T23:44:58.483Z,23.77
2022-12-09T23:47:41.441Z,26.35
2022-12-09T23:50:29.714Z,24.77
2022-12-09T23:53:16.333Z,25.20
2022-12-09T23:56:06.403Z,24.02
2022-12-09T23:58:47.509Z,36.28
